AAL1618 KDFW-KDCA
Flight info
| Callsign | AAL1618 |
|---|---|
| Flight time | 2h 19m |
| Altitude | 37000 |
| Route | TRYTN4 LOOSE Q34 SITTR TRUPS5 |
| Aircraft | B738/M-SDE2E3FGHIRWXY/LB1 |
Departure
| Time | 2026-04-30 19:18 |
|---|---|
| Airport | Dallas Fort Worth International Airport (KDFW) |
Arrival
| Time | 2026-04-30 21:37 |
|---|---|
| Airport | Ronald Reagan Washington National Airport (KDCA) |
| Time | Latitude | Longitude | Altitude | Speed | Heading |
|---|---|---|---|---|---|
| 2026-04-30 19:11 | 32.89543 | -97.04667 | 597 ft | 0 kts | 180° |
| 2026-04-30 19:13 | 32.89506 | -97.04668 | 597 ft | 12 kts | 185° |
| 2026-04-30 19:14 | 32.89405 | -97.04732 | 594 ft | 19 kts | 207° |
| 2026-04-30 19:14 | 32.89277 | -97.04759 | 594 ft | 19 kts | 184° |
| 2026-04-30 19:14 | 32.89149 | -97.04765 | 593 ft | 18 kts | 181° |
| 2026-04-30 19:14 | 32.89021 | -97.04767 | 590 ft | 19 kts | 181° |
| 2026-04-30 19:15 | 32.88889 | -97.04768 | 590 ft | 19 kts | 180° |
| 2026-04-30 19:15 | 32.88639 | -97.04769 | 587 ft | 18 kts | 180° |
| 2026-04-30 19:15 | 32.88519 | -97.04773 | 586 ft | 17 kts | 192° |
| 2026-04-30 19:16 | 32.88406 | -97.04805 | 588 ft | 17 kts | 182° |
| 2026-04-30 19:16 | 32.88285 | -97.04807 | 587 ft | 18 kts | 180° |
| 2026-04-30 19:16 | 32.88020 | -97.04810 | 586 ft | 19 kts | 180° |
| 2026-04-30 19:17 | 32.87908 | -97.04859 | 585 ft | 19 kts | 253° |
| 2026-04-30 19:17 | 32.87971 | -97.05091 | 587 ft | 14 kts | 358° |
| 2026-04-30 19:17 | 32.87978 | -97.05091 | 588 ft | 0 kts | 0° |
| 2026-04-30 19:18 | 32.88278 | -97.05089 | 590 ft | 88 kts | 0° |
| 2026-04-30 19:18 | 32.89583 | -97.05078 | 671 ft | 183 kts | 2° |
| 2026-04-30 19:18 | 32.90985 | -97.05078 | 1273 ft | 201 kts | 3° |
| 2026-04-30 19:19 | 32.92341 | -97.05095 | 2517 ft | 195 kts | 4° |
| 2026-04-30 19:19 | 32.93736 | -97.05112 | 3131 ft | 210 kts | 4° |
| 2026-04-30 19:19 | 32.96749 | -97.04292 | 4166 ft | 241 kts | 15° |
| 2026-04-30 19:20 | 32.98457 | -97.03920 | 4693 ft | 253 kts | 12° |
| 2026-04-30 19:20 | 33.00228 | -97.03617 | 5197 ft | 261 kts | 9° |
| 2026-04-30 19:20 | 33.03744 | -97.02277 | 6232 ft | 280 kts | 33° |
| 2026-04-30 19:21 | 33.05314 | -97.00853 | 6727 ft | 286 kts | 43° |
| 2026-04-30 19:21 | 33.08342 | -96.97753 | 7686 ft | 289 kts | 41° |
| 2026-04-30 19:22 | 33.09623 | -96.93302 | 8696 ft | 296 kts | 94° |
| 2026-04-30 19:22 | 33.07397 | -96.86318 | 10175 ft | 321 kts | 105° |
| 2026-04-30 19:23 | 33.05383 | -96.78136 | 12065 ft | 353 kts | 115° |
| 2026-04-30 19:24 | 33.03382 | -96.72635 | 13492 ft | 367 kts | 116° |
| 2026-04-30 19:24 | 33.02370 | -96.69822 | 14191 ft | 372 kts | 116° |
| 2026-04-30 19:24 | 33.00343 | -96.64053 | 15553 ft | 383 kts | 116° |
| 2026-04-30 19:25 | 32.97221 | -96.55025 | 17372 ft | 406 kts | 117° |
| 2026-04-30 19:26 | 32.95045 | -96.48723 | 18583 ft | 415 kts | 117° |
| 2026-04-30 19:26 | 32.92821 | -96.42293 | 19672 ft | 424 kts | 117° |
| 2026-04-30 19:26 | 32.91691 | -96.39031 | 20266 ft | 428 kts | 117° |
| 2026-04-30 19:27 | 32.90418 | -96.32059 | 21362 ft | 445 kts | 84° |
| 2026-04-30 19:27 | 32.92242 | -96.25105 | 22567 ft | 446 kts | 65° |
| 2026-04-30 19:28 | 32.93408 | -96.21676 | 23090 ft | 451 kts | 64° |
| 2026-04-30 19:28 | 32.95764 | -96.14692 | 24048 ft | 458 kts | 65° |
| 2026-04-30 19:29 | 32.98103 | -96.07535 | 24895 ft | 468 kts | 65° |
| 2026-04-30 19:29 | 32.99273 | -96.03908 | 25304 ft | 473 kts | 66° |
| 2026-04-30 19:30 | 33.02851 | -95.92765 | 26542 ft | 487 kts | 65° |
| 2026-04-30 19:30 | 33.05293 | -95.85155 | 27275 ft | 495 kts | 65° |
| 2026-04-30 19:31 | 33.07768 | -95.77447 | 28044 ft | 501 kts | 65° |
| 2026-04-30 19:31 | 33.09020 | -95.73556 | 28396 ft | 504 kts | 65° |
| 2026-04-30 19:31 | 33.11549 | -95.65682 | 29065 ft | 512 kts | 65° |
| 2026-04-30 19:32 | 33.12824 | -95.61698 | 29437 ft | 515 kts | 65° |
| 2026-04-30 19:32 | 33.14103 | -95.57690 | 29811 ft | 518 kts | 65° |
| 2026-04-30 19:32 | 33.15391 | -95.53650 | 30152 ft | 521 kts | 65° |
| 2026-04-30 19:32 | 33.16665 | -95.49647 | 30432 ft | 524 kts | 65° |
| 2026-04-30 19:33 | 33.17962 | -95.45568 | 30725 ft | 527 kts | 65° |
| 2026-04-30 19:33 | 33.19266 | -95.41459 | 31012 ft | 529 kts | 65° |
| 2026-04-30 19:33 | 33.20571 | -95.37341 | 31283 ft | 532 kts | 65° |
| 2026-04-30 19:33 | 33.21885 | -95.33192 | 31541 ft | 534 kts | 65° |
| 2026-04-30 19:34 | 33.23200 | -95.29032 | 31792 ft | 537 kts | 65° |
| 2026-04-30 19:34 | 33.24523 | -95.24844 | 32044 ft | 539 kts | 64° |
| 2026-04-30 19:34 | 33.27173 | -95.16434 | 32607 ft | 542 kts | 64° |
| 2026-04-30 19:35 | 33.28496 | -95.12224 | 32986 ft | 541 kts | 64° |
| 2026-04-30 19:35 | 33.29815 | -95.08021 | 33379 ft | 539 kts | 64° |
| 2026-04-30 19:35 | 33.31117 | -95.03870 | 33722 ft | 539 kts | 64° |
| 2026-04-30 19:35 | 33.32433 | -94.99666 | 34035 ft | 540 kts | 64° |
| 2026-04-30 19:36 | 33.33749 | -94.95461 | 34319 ft | 540 kts | 64° |
| 2026-04-30 19:36 | 33.35061 | -94.91261 | 34646 ft | 538 kts | 64° |
| 2026-04-30 19:36 | 33.37676 | -94.82868 | 35282 ft | 536 kts | 64° |
| 2026-04-30 19:37 | 33.38975 | -94.78692 | 35577 ft | 535 kts | 64° |
| 2026-04-30 19:37 | 33.40268 | -94.74529 | 35863 ft | 534 kts | 64° |
| 2026-04-30 19:37 | 33.41558 | -94.70368 | 36172 ft | 533 kts | 64° |
| 2026-04-30 19:37 | 33.42846 | -94.66212 | 36442 ft | 532 kts | 64° |
| 2026-04-30 19:38 | 33.44133 | -94.62053 | 36710 ft | 531 kts | 64° |
| 2026-04-30 19:38 | 33.45413 | -94.57906 | 36981 ft | 530 kts | 64° |
| 2026-04-30 19:38 | 33.47971 | -94.49619 | 37033 ft | 535 kts | 64° |
| 2026-04-30 19:39 | 33.50537 | -94.41261 | 37022 ft | 532 kts | 64° |
| 2026-04-30 19:39 | 33.53071 | -94.32983 | 37038 ft | 527 kts | 64° |
| 2026-04-30 19:40 | 33.55589 | -94.24748 | 37056 ft | 526 kts | 64° |
| 2026-04-30 19:40 | 33.58068 | -94.16487 | 37071 ft | 527 kts | 64° |
| 2026-04-30 19:41 | 33.60524 | -94.08205 | 37075 ft | 527 kts | 64° |
| 2026-04-30 19:41 | 33.62988 | -93.99883 | 37070 ft | 530 kts | 64° |
| 2026-04-30 19:42 | 33.65456 | -93.91540 | 37074 ft | 531 kts | 64° |
| 2026-04-30 19:42 | 33.67928 | -93.83160 | 37059 ft | 533 kts | 64° |
| 2026-04-30 19:43 | 33.70385 | -93.74807 | 37052 ft | 534 kts | 64° |
| 2026-04-30 19:44 | 33.74087 | -93.62176 | 37052 ft | 536 kts | 64° |
| 2026-04-30 19:44 | 33.76561 | -93.53703 | 37046 ft | 536 kts | 64° |
| 2026-04-30 19:45 | 33.79023 | -93.45245 | 37052 ft | 537 kts | 64° |
| 2026-04-30 19:45 | 33.81485 | -93.36762 | 37052 ft | 537 kts | 64° |
| 2026-04-30 19:46 | 33.83936 | -93.28290 | 37054 ft | 536 kts | 64° |
| 2026-04-30 19:46 | 33.86379 | -93.19820 | 37060 ft | 535 kts | 65° |
| 2026-04-30 19:47 | 33.88797 | -93.11413 | 37067 ft | 535 kts | 65° |
| 2026-04-30 19:47 | 33.91435 | -93.03086 | 37056 ft | 529 kts | 58° |
| 2026-04-30 19:48 | 33.94538 | -92.95068 | 37067 ft | 527 kts | 57° |
| 2026-04-30 19:48 | 33.97632 | -92.87056 | 37072 ft | 528 kts | 58° |
| 2026-04-30 19:49 | 34.00634 | -92.78987 | 37058 ft | 528 kts | 58° |
| 2026-04-30 19:49 | 34.05109 | -92.66829 | 37060 ft | 530 kts | 58° |
| 2026-04-30 19:50 | 34.08128 | -92.58726 | 37061 ft | 528 kts | 57° |
| 2026-04-30 19:50 | 34.11169 | -92.50661 | 37062 ft | 528 kts | 58° |
| 2026-04-30 19:51 | 34.14180 | -92.42566 | 37066 ft | 528 kts | 58° |
| 2026-04-30 19:51 | 34.17181 | -92.34460 | 37066 ft | 528 kts | 58° |
| 2026-04-30 19:52 | 34.20175 | -92.26369 | 37119 ft | 528 kts | 58° |
| 2026-04-30 19:52 | 34.23161 | -92.18293 | 37072 ft | 529 kts | 58° |
| 2026-04-30 19:53 | 34.26158 | -92.10162 | 37080 ft | 529 kts | 58° |
| 2026-04-30 19:53 | 34.29146 | -92.02027 | 37072 ft | 529 kts | 58° |
| 2026-04-30 19:54 | 34.31626 | -91.95254 | 37076 ft | 529 kts | 58° |
| 2026-04-30 19:54 | 34.34600 | -91.87117 | 37078 ft | 529 kts | 58° |
| 2026-04-30 19:55 | 34.37568 | -91.78975 | 37076 ft | 529 kts | 58° |
| 2026-04-30 19:55 | 34.40528 | -91.70833 | 37072 ft | 529 kts | 58° |
| 2026-04-30 19:56 | 34.43489 | -91.62670 | 37082 ft | 529 kts | 58° |
| 2026-04-30 19:56 | 34.46441 | -91.54510 | 37091 ft | 529 kts | 58° |
| 2026-04-30 19:57 | 34.49376 | -91.46380 | 37083 ft | 530 kts | 58° |
| 2026-04-30 19:57 | 34.52324 | -91.38187 | 37087 ft | 530 kts | 58° |
| 2026-04-30 19:58 | 34.55271 | -91.29977 | 37083 ft | 530 kts | 58° |
| 2026-04-30 19:58 | 34.58207 | -91.21780 | 37076 ft | 530 kts | 58° |
| 2026-04-30 19:59 | 34.61146 | -91.13551 | 37080 ft | 530 kts | 58° |
| 2026-04-30 20:00 | 34.65515 | -91.01278 | 37074 ft | 530 kts | 58° |
| 2026-04-30 20:00 | 34.68436 | -90.93047 | 37077 ft | 530 kts | 58° |
| 2026-04-30 20:01 | 34.72799 | -90.80710 | 37075 ft | 530 kts | 58° |
| 2026-04-30 20:01 | 34.75707 | -90.72464 | 37071 ft | 530 kts | 58° |
| 2026-04-30 20:02 | 34.80052 | -90.60095 | 37059 ft | 530 kts | 58° |
| 2026-04-30 20:03 | 34.84379 | -90.47732 | 37060 ft | 529 kts | 58° |
| 2026-04-30 20:03 | 34.87252 | -90.39497 | 37058 ft | 528 kts | 58° |
| 2026-04-30 20:04 | 34.90114 | -90.31269 | 37061 ft | 527 kts | 58° |
| 2026-04-30 20:05 | 34.94378 | -90.18971 | 37061 ft | 527 kts | 58° |
| 2026-04-30 20:05 | 34.98638 | -90.06628 | 37064 ft | 526 kts | 58° |
| 2026-04-30 20:06 | 35.01472 | -89.98400 | 37075 ft | 528 kts | 58° |
| 2026-04-30 20:06 | 35.04378 | -89.90187 | 37078 ft | 526 kts | 57° |
| 2026-04-30 20:07 | 35.07327 | -89.82031 | 37063 ft | 526 kts | 57° |
| 2026-04-30 20:08 | 35.11730 | -89.69758 | 37065 ft | 525 kts | 57° |
| 2026-04-30 20:08 | 35.14646 | -89.61560 | 37069 ft | 525 kts | 57° |
| 2026-04-30 20:09 | 35.17552 | -89.53365 | 37066 ft | 525 kts | 57° |
| 2026-04-30 20:09 | 35.21899 | -89.41070 | 37065 ft | 525 kts | 57° |
| 2026-04-30 20:10 | 35.26224 | -89.28791 | 37084 ft | 527 kts | 58° |
| 2026-04-30 20:11 | 35.30560 | -89.16425 | 37078 ft | 528 kts | 58° |
| 2026-04-30 20:11 | 35.33453 | -89.08152 | 37071 ft | 528 kts | 58° |
| 2026-04-30 20:12 | 35.37790 | -88.95738 | 37090 ft | 528 kts | 58° |
| 2026-04-30 20:13 | 35.40677 | -88.87446 | 37087 ft | 529 kts | 58° |
| 2026-04-30 20:13 | 35.43559 | -88.79139 | 37097 ft | 530 kts | 58° |
| 2026-04-30 20:14 | 35.46422 | -88.70863 | 37088 ft | 530 kts | 58° |
| 2026-04-30 20:14 | 35.49294 | -88.62533 | 37087 ft | 530 kts | 58° |
| 2026-04-30 20:15 | 35.52162 | -88.54195 | 37081 ft | 531 kts | 58° |
| 2026-04-30 20:15 | 35.55036 | -88.45814 | 37094 ft | 532 kts | 58° |
| 2026-04-30 20:16 | 35.57903 | -88.37440 | 37091 ft | 532 kts | 58° |
| 2026-04-30 20:16 | 35.60765 | -88.29077 | 37102 ft | 531 kts | 58° |
| 2026-04-30 20:17 | 35.63625 | -88.20688 | 37100 ft | 531 kts | 58° |
| 2026-04-30 20:17 | 35.66469 | -88.12311 | 37084 ft | 531 kts | 58° |
| 2026-04-30 20:18 | 35.69314 | -88.03910 | 37090 ft | 532 kts | 58° |
| 2026-04-30 20:18 | 35.72134 | -87.95561 | 37079 ft | 532 kts | 58° |
| 2026-04-30 20:19 | 35.74973 | -87.87124 | 37093 ft | 533 kts | 58° |
| 2026-04-30 20:19 | 35.77806 | -87.78687 | 37076 ft | 533 kts | 58° |
| 2026-04-30 20:20 | 35.80625 | -87.70241 | 37101 ft | 533 kts | 59° |
| 2026-04-30 20:20 | 35.83406 | -87.61824 | 37088 ft | 534 kts | 59° |
| 2026-04-30 20:21 | 35.86201 | -87.53331 | 37075 ft | 535 kts | 59° |
| 2026-04-30 20:21 | 35.88995 | -87.44819 | 37079 ft | 535 kts | 59° |
| 2026-04-30 20:22 | 35.91781 | -87.36315 | 37073 ft | 535 kts | 59° |
| 2026-04-30 20:22 | 35.94561 | -87.27802 | 37089 ft | 535 kts | 59° |
| 2026-04-30 20:23 | 35.97337 | -87.19279 | 37081 ft | 535 kts | 59° |
| 2026-04-30 20:23 | 36.00106 | -87.10751 | 37073 ft | 535 kts | 59° |
| 2026-04-30 20:24 | 36.02869 | -87.02219 | 37070 ft | 535 kts | 59° |
| 2026-04-30 20:24 | 36.05629 | -86.93669 | 37066 ft | 535 kts | 59° |
| 2026-04-30 20:25 | 36.09722 | -86.80940 | 37069 ft | 534 kts | 59° |
| 2026-04-30 20:26 | 36.13825 | -86.68126 | 37082 ft | 534 kts | 59° |
| 2026-04-30 20:26 | 36.17978 | -86.55326 | 37088 ft | 533 kts | 59° |
| 2026-04-30 20:27 | 36.23509 | -86.38272 | 37103 ft | 534 kts | 59° |
| 2026-04-30 20:28 | 36.28993 | -86.21197 | 37084 ft | 535 kts | 59° |
| 2026-04-30 20:30 | 36.35850 | -85.99716 | 37078 ft | 536 kts | 59° |
| 2026-04-30 20:31 | 36.44012 | -85.73949 | 37102 ft | 536 kts | 59° |
| 2026-04-30 20:32 | 36.50813 | -85.52279 | 37065 ft | 540 kts | 60° |
| 2026-04-30 20:33 | 36.54900 | -85.39182 | 37048 ft | 542 kts | 60° |
| 2026-04-30 20:34 | 36.58971 | -85.26063 | 37052 ft | 542 kts | 60° |
| 2026-04-30 20:35 | 36.63016 | -85.12989 | 37062 ft | 541 kts | 60° |
| 2026-04-30 20:35 | 36.67063 | -84.99859 | 37083 ft | 543 kts | 60° |
| 2026-04-30 20:36 | 36.69756 | -84.91072 | 37082 ft | 543 kts | 60° |
| 2026-04-30 20:37 | 36.73770 | -84.77913 | 37086 ft | 540 kts | 60° |
| 2026-04-30 20:37 | 36.76427 | -84.69170 | 37076 ft | 538 kts | 60° |
| 2026-04-30 20:38 | 36.79069 | -84.60453 | 37074 ft | 536 kts | 60° |
| 2026-04-30 20:38 | 36.81700 | -84.51757 | 37059 ft | 535 kts | 60° |
| 2026-04-30 20:39 | 36.85625 | -84.38784 | 37047 ft | 535 kts | 60° |
| 2026-04-30 20:40 | 36.89552 | -84.25716 | 37072 ft | 537 kts | 61° |
| 2026-04-30 20:40 | 36.92168 | -84.16968 | 37054 ft | 537 kts | 61° |
| 2026-04-30 20:41 | 36.96084 | -84.03829 | 37050 ft | 538 kts | 61° |
| 2026-04-30 20:41 | 36.98683 | -83.95062 | 37056 ft | 538 kts | 61° |
| 2026-04-30 20:42 | 37.01275 | -83.86272 | 37053 ft | 538 kts | 61° |
| 2026-04-30 20:43 | 37.05139 | -83.73102 | 37034 ft | 537 kts | 62° |
| 2026-04-30 20:43 | 37.07274 | -83.65802 | 37082 ft | 537 kts | 62° |
| 2026-04-30 20:44 | 37.11125 | -83.52595 | 37021 ft | 537 kts | 62° |
| 2026-04-30 20:45 | 37.16206 | -83.35045 | 37006 ft | 534 kts | 62° |
| 2026-04-30 20:45 | 37.18725 | -83.26306 | 37002 ft | 532 kts | 62° |
| 2026-04-30 20:46 | 37.23721 | -83.08898 | 37022 ft | 529 kts | 62° |
| 2026-04-30 20:47 | 37.27440 | -82.95855 | 37064 ft | 529 kts | 62° |
| 2026-04-30 20:48 | 37.31147 | -82.82863 | 37017 ft | 529 kts | 62° |
| 2026-04-30 20:48 | 37.33612 | -82.74154 | 37016 ft | 530 kts | 62° |
| 2026-04-30 20:49 | 37.36071 | -82.65432 | 37040 ft | 529 kts | 62° |
| 2026-04-30 20:50 | 37.39757 | -82.52328 | 37046 ft | 531 kts | 63° |
| 2026-04-30 20:50 | 37.42215 | -82.43567 | 37016 ft | 531 kts | 63° |
| 2026-04-30 20:51 | 37.44656 | -82.34780 | 37004 ft | 531 kts | 63° |
| 2026-04-30 20:51 | 37.48313 | -82.21613 | 37021 ft | 532 kts | 63° |
| 2026-04-30 20:52 | 37.50749 | -82.12819 | 37024 ft | 532 kts | 63° |
| 2026-04-30 20:53 | 37.54394 | -81.99671 | 37019 ft | 532 kts | 63° |
| 2026-04-30 20:53 | 37.56820 | -81.90849 | 37014 ft | 532 kts | 63° |
| 2026-04-30 20:54 | 37.60450 | -81.77612 | 37004 ft | 533 kts | 63° |
| 2026-04-30 20:55 | 37.64056 | -81.64349 | 37016 ft | 533 kts | 63° |
| 2026-04-30 20:55 | 37.66450 | -81.55505 | 37063 ft | 533 kts | 64° |
| 2026-04-30 20:56 | 37.70019 | -81.42225 | 37011 ft | 531 kts | 64° |
| 2026-04-30 20:57 | 37.73551 | -81.29023 | 37004 ft | 526 kts | 64° |
| 2026-04-30 20:57 | 37.75870 | -81.20328 | 37008 ft | 524 kts | 64° |
| 2026-04-30 20:58 | 37.79556 | -81.07417 | 37015 ft | 515 kts | 58° |
| 2026-04-30 20:58 | 37.82575 | -80.99238 | 37016 ft | 513 kts | 56° |
| 2026-04-30 20:59 | 37.87039 | -80.86905 | 36999 ft | 514 kts | 58° |
| 2026-04-30 21:00 | 37.92877 | -80.70442 | 37007 ft | 511 kts | 58° |
| 2026-04-30 21:01 | 37.97250 | -80.58132 | 36983 ft | 511 kts | 58° |
| 2026-04-30 21:02 | 38.01571 | -80.45871 | 36993 ft | 509 kts | 58° |
| 2026-04-30 21:02 | 38.04465 | -80.37660 | 36978 ft | 510 kts | 59° |
| 2026-04-30 21:03 | 38.07350 | -80.29433 | 36813 ft | 515 kts | 59° |
| 2026-04-30 21:03 | 38.08813 | -80.25262 | 36302 ft | 517 kts | 58° |
| 2026-04-30 21:03 | 38.10273 | -80.21111 | 35865 ft | 512 kts | 58° |
| 2026-04-30 21:03 | 38.11735 | -80.16992 | 35437 ft | 509 kts | 58° |
| 2026-04-30 21:04 | 38.13190 | -80.12913 | 35006 ft | 506 kts | 58° |
| 2026-04-30 21:04 | 38.14636 | -80.08853 | 34590 ft | 504 kts | 58° |
| 2026-04-30 21:04 | 38.17502 | -80.00772 | 33739 ft | 499 kts | 58° |
| 2026-04-30 21:05 | 38.18921 | -79.96758 | 33250 ft | 497 kts | 58° |
| 2026-04-30 21:05 | 38.20331 | -79.92761 | 32773 ft | 494 kts | 58° |
| 2026-04-30 21:05 | 38.21732 | -79.88781 | 32331 ft | 492 kts | 59° |
| 2026-04-30 21:05 | 38.23125 | -79.84819 | 31897 ft | 489 kts | 59° |
| 2026-04-30 21:06 | 38.24510 | -79.80871 | 31428 ft | 486 kts | 59° |
| 2026-04-30 21:06 | 38.25882 | -79.76956 | 30990 ft | 483 kts | 60° |
| 2026-04-30 21:06 | 38.27245 | -79.73068 | 30570 ft | 480 kts | 60° |
| 2026-04-30 21:06 | 38.28594 | -79.69192 | 30114 ft | 478 kts | 61° |
| 2026-04-30 21:07 | 38.29925 | -79.65333 | 29624 ft | 474 kts | 61° |
| 2026-04-30 21:07 | 38.31242 | -79.61499 | 29117 ft | 471 kts | 61° |
| 2026-04-30 21:07 | 38.32547 | -79.57690 | 28634 ft | 467 kts | 61° |
| 2026-04-30 21:07 | 38.33843 | -79.53910 | 28115 ft | 464 kts | 61° |
| 2026-04-30 21:08 | 38.35130 | -79.50155 | 27635 ft | 461 kts | 61° |
| 2026-04-30 21:08 | 38.36388 | -79.46473 | 27193 ft | 458 kts | 61° |
| 2026-04-30 21:08 | 38.37655 | -79.42760 | 26717 ft | 456 kts | 61° |
| 2026-04-30 21:08 | 38.38916 | -79.39066 | 26247 ft | 453 kts | 62° |
| 2026-04-30 21:09 | 38.40170 | -79.35392 | 25803 ft | 451 kts | 62° |
| 2026-04-30 21:09 | 38.41414 | -79.31740 | 25396 ft | 448 kts | 62° |
| 2026-04-30 21:09 | 38.42601 | -79.28077 | 24955 ft | 448 kts | 68° |
| 2026-04-30 21:09 | 38.43395 | -79.24236 | 24517 ft | 448 kts | 75° |
| 2026-04-30 21:10 | 38.44014 | -79.20354 | 24108 ft | 445 kts | 77° |
| 2026-04-30 21:10 | 38.44601 | -79.16520 | 23949 ft | 435 kts | 76° |
| 2026-04-30 21:10 | 38.45201 | -79.12791 | 23915 ft | 421 kts | 76° |
| 2026-04-30 21:10 | 38.45814 | -79.09201 | 23920 ft | 408 kts | 75° |
| 2026-04-30 21:11 | 38.46429 | -79.05694 | 23904 ft | 404 kts | 75° |
| 2026-04-30 21:11 | 38.47052 | -79.02167 | 23522 ft | 411 kts | 75° |
| 2026-04-30 21:11 | 38.47678 | -78.98601 | 23055 ft | 413 kts | 75° |
| 2026-04-30 21:11 | 38.48301 | -78.95023 | 22579 ft | 413 kts | 75° |
| 2026-04-30 21:12 | 38.48922 | -78.91443 | 22097 ft | 413 kts | 75° |
| 2026-04-30 21:12 | 38.49543 | -78.87864 | 21633 ft | 413 kts | 75° |
| 2026-04-30 21:12 | 38.50159 | -78.84287 | 21181 ft | 413 kts | 76° |
| 2026-04-30 21:12 | 38.50737 | -78.80705 | 20925 ft | 407 kts | 77° |
| 2026-04-30 21:13 | 38.51276 | -78.77229 | 20895 ft | 393 kts | 77° |
| 2026-04-30 21:13 | 38.51798 | -78.73855 | 20899 ft | 383 kts | 77° |
| 2026-04-30 21:13 | 38.52320 | -78.70515 | 20923 ft | 385 kts | 76° |
| 2026-04-30 21:13 | 38.52848 | -78.67156 | 20927 ft | 387 kts | 77° |
| 2026-04-30 21:14 | 38.53378 | -78.63791 | 20910 ft | 384 kts | 76° |
| 2026-04-30 21:14 | 38.53908 | -78.60472 | 20919 ft | 382 kts | 77° |
| 2026-04-30 21:14 | 38.54442 | -78.57137 | 20925 ft | 385 kts | 77° |
| 2026-04-30 21:14 | 38.54973 | -78.53818 | 20840 ft | 386 kts | 77° |
| 2026-04-30 21:15 | 38.55510 | -78.50442 | 20444 ft | 390 kts | 77° |
| 2026-04-30 21:15 | 38.56051 | -78.47026 | 20012 ft | 393 kts | 77° |
| 2026-04-30 21:15 | 38.56592 | -78.43606 | 19595 ft | 393 kts | 77° |
| 2026-04-30 21:15 | 38.57134 | -78.40177 | 19148 ft | 394 kts | 77° |
| 2026-04-30 21:16 | 38.57699 | -78.36754 | 18727 ft | 394 kts | 76° |
| 2026-04-30 21:16 | 38.58300 | -78.33338 | 18292 ft | 393 kts | 76° |
| 2026-04-30 21:16 | 38.58900 | -78.29937 | 17790 ft | 391 kts | 76° |
| 2026-04-30 21:16 | 38.59491 | -78.26556 | 17332 ft | 389 kts | 76° |
| 2026-04-30 21:17 | 38.60154 | -78.23207 | 16849 ft | 388 kts | 69° |
| 2026-04-30 21:17 | 38.61147 | -78.20021 | 16395 ft | 385 kts | 63° |
| 2026-04-30 21:17 | 38.62244 | -78.16900 | 15919 ft | 384 kts | 63° |
| 2026-04-30 21:17 | 38.63320 | -78.13766 | 15469 ft | 383 kts | 64° |
| 2026-04-30 21:18 | 38.64355 | -78.10631 | 15030 ft | 382 kts | 65° |
| 2026-04-30 21:18 | 38.65368 | -78.07496 | 14599 ft | 381 kts | 65° |
| 2026-04-30 21:18 | 38.66373 | -78.04360 | 14172 ft | 380 kts | 65° |
| 2026-04-30 21:18 | 38.67378 | -78.01226 | 13828 ft | 382 kts | 65° |
| 2026-04-30 21:19 | 38.68400 | -77.98055 | 13367 ft | 389 kts | 65° |
| 2026-04-30 21:19 | 38.69432 | -77.94831 | 12813 ft | 392 kts | 65° |
| 2026-04-30 21:19 | 38.70444 | -77.91655 | 12338 ft | 388 kts | 66° |
| 2026-04-30 21:19 | 38.71473 | -77.88433 | 11862 ft | 384 kts | 66° |
| 2026-04-30 21:20 | 38.72465 | -77.85327 | 11419 ft | 380 kts | 66° |
| 2026-04-30 21:20 | 38.73588 | -77.82260 | 11062 ft | 369 kts | 53° |
| 2026-04-30 21:20 | 38.75191 | -77.79884 | 11050 ft | 348 kts | 43° |
| 2026-04-30 21:20 | 38.76804 | -77.77660 | 11034 ft | 333 kts | 44° |
| 2026-04-30 21:21 | 38.78203 | -77.75676 | 11012 ft | 319 kts | 44° |
| 2026-04-30 21:21 | 38.79641 | -77.73610 | 11028 ft | 305 kts | 44° |
| 2026-04-30 21:21 | 38.82308 | -77.69644 | 10742 ft | 292 kts | 54° |
| 2026-04-30 21:22 | 38.83173 | -77.67501 | 10460 ft | 290 kts | 63° |
| 2026-04-30 21:22 | 38.85586 | -77.60581 | 9309 ft | 277 kts | 63° |
| 2026-04-30 21:23 | 38.86379 | -77.58353 | 8914 ft | 274 kts | 62° |
| 2026-04-30 21:23 | 38.87171 | -77.56149 | 8515 ft | 271 kts | 62° |
| 2026-04-30 21:23 | 38.88732 | -77.51833 | 7738 ft | 265 kts | 62° |
| 2026-04-30 21:24 | 38.89505 | -77.49701 | 7357 ft | 262 kts | 62° |
| 2026-04-30 21:24 | 38.90269 | -77.47591 | 6978 ft | 259 kts | 61° |
| 2026-04-30 21:24 | 38.90788 | -77.45392 | 6579 ft | 262 kts | 87° |
| 2026-04-30 21:24 | 38.90383 | -77.43139 | 6210 ft | 259 kts | 115° |
| 2026-04-30 21:25 | 38.88706 | -77.39304 | 6013 ft | 230 kts | 119° |
| 2026-04-30 21:25 | 38.87937 | -77.37570 | 6014 ft | 217 kts | 119° |
| 2026-04-30 21:25 | 38.87199 | -77.35893 | 6023 ft | 216 kts | 119° |
| 2026-04-30 21:26 | 38.85721 | -77.32513 | 6056 ft | 219 kts | 119° |
| 2026-04-30 21:26 | 38.84974 | -77.30804 | 6039 ft | 220 kts | 119° |
| 2026-04-30 21:27 | 38.83451 | -77.27404 | 5956 ft | 221 kts | 120° |
| 2026-04-30 21:27 | 38.82672 | -77.25675 | 5698 ft | 224 kts | 120° |
| 2026-04-30 21:27 | 38.81899 | -77.23961 | 5443 ft | 220 kts | 120° |
| 2026-04-30 21:28 | 38.80382 | -77.20598 | 5030 ft | 217 kts | 120° |
| 2026-04-30 21:28 | 38.79884 | -77.19493 | 4995 ft | 215 kts | 120° |
| 2026-04-30 21:28 | 38.78381 | -77.16163 | 4818 ft | 222 kts | 120° |
| 2026-04-30 21:29 | 38.77609 | -77.14452 | 4554 ft | 219 kts | 120° |
| 2026-04-30 21:29 | 38.74416 | -77.11211 | 3775 ft | 196 kts | 181° |
| 2026-04-30 21:30 | 38.71652 | -77.11075 | 3263 ft | 200 kts | 182° |
| 2026-04-30 21:31 | 38.67507 | -77.10874 | 2712 ft | 199 kts | 182° |
| 2026-04-30 21:31 | 38.64789 | -77.10149 | 2533 ft | 212 kts | 147° |
| 2026-04-30 21:32 | 38.63466 | -77.06945 | 2518 ft | 207 kts | 85° |
| 2026-04-30 21:32 | 38.63799 | -77.05249 | 2522 ft | 195 kts | 54° |
| 2026-04-30 21:32 | 38.64645 | -77.03935 | 2521 ft | 188 kts | 33° |
| 2026-04-30 21:32 | 38.65655 | -77.02893 | 2512 ft | 183 kts | 31° |
| 2026-04-30 21:33 | 38.66695 | -77.02049 | 2520 ft | 170 kts | 9° |
| 2026-04-30 21:33 | 38.69006 | -77.02157 | 2502 ft | 168 kts | 351° |
| 2026-04-30 21:33 | 38.70174 | -77.02260 | 2497 ft | 166 kts | 350° |
| 2026-04-30 21:34 | 38.71298 | -77.02372 | 2445 ft | 157 kts | 349° |
| 2026-04-30 21:34 | 38.73330 | -77.02579 | 2144 ft | 143 kts | 349° |
| 2026-04-30 21:34 | 38.74307 | -77.02679 | 1985 ft | 140 kts | 349° |
| 2026-04-30 21:35 | 38.75275 | -77.02778 | 1787 ft | 141 kts | 350° |
| 2026-04-30 21:35 | 38.76254 | -77.02876 | 1603 ft | 140 kts | 348° |
| 2026-04-30 21:35 | 38.77210 | -77.02971 | 1398 ft | 137 kts | 351° |
| 2026-04-30 21:35 | 38.78167 | -77.03070 | 1214 ft | 138 kts | 348° |
| 2026-04-30 21:36 | 38.79124 | -77.03167 | 1024 ft | 138 kts | 349° |
| 2026-04-30 21:36 | 38.80089 | -77.03257 | 817 ft | 143 kts | 351° |
| 2026-04-30 21:37 | 38.83163 | -77.03556 | 251 ft | 149 kts | 347° |
| 2026-04-30 21:37 | 38.84178 | -77.03668 | 52 ft | 143 kts | 346° |
| 2026-04-30 21:37 | 38.85066 | -77.03793 | 26 ft | 103 kts | 355° |
| 2026-04-30 21:37 | 38.85552 | -77.03830 | 26 ft | 34 kts | 351° |
| 2026-04-30 21:38 | 38.85690 | -77.03958 | 26 ft | 17 kts | 285° |
| 2026-04-30 21:38 | 38.85693 | -77.03989 | 26 ft | 1 kts | 271° |
| 2026-04-30 21:38 | 38.85692 | -77.04003 | 24 ft | 3 kts | 259° |
| 2026-04-30 21:38 | 38.85667 | -77.04037 | 24 ft | 9 kts | 200° |
| 2026-04-30 21:39 | 38.85593 | -77.04036 | 26 ft | 11 kts | 173° |
| 2026-04-30 21:39 | 38.85505 | -77.04013 | 26 ft | 14 kts | 167° |
| 2026-04-30 21:39 | 38.85409 | -77.04000 | 27 ft | 14 kts | 176° |
| 2026-04-30 21:39 | 38.85331 | -77.04039 | 24 ft | 13 kts | 249° |
| 2026-04-30 21:40 | 38.85316 | -77.04131 | 23 ft | 7 kts | 292° |
| 2026-04-30 21:40 | 38.85351 | -77.04150 | 23 ft | 5 kts | 347° |
| 2026-04-30 21:40 | 38.85361 | -77.04152 | 24 ft | 0 kts | 348° |